Startpagina
METAR-TAF:

METAR-TAF

Vliegvelden :

Vliegbasis Spangdahlem

Spangdahlem, Duitsland

breedte: 49-59N, lengte: 006-42E, hoogte: 365 m

Actueel weer

Dit bericht is 37 minuten geleden gemaakt, om 04:56 UTC
Wind 4 kt uit het oostnoordoosten
Temperatuur -3°C
Vochtigheid 63%
Druk 1024 hPa
Zicht 10 km of meer
Onbewolkt

METAR: ETAD 070456Z AUTO 06004KT 9999 CLR M03/M09 A3025 RMK AO2 SLP253 T10351093

Tijdstip: 06:33 (05:33 UTC)

Verwachting

Dit bericht is 14 uur en het 33 minuten geleden gemaakt, om 15:00 UTC
Verwachting geldig van 06 om 15 UTC tot 07 om 21 UTC
Wind 9 kt uit het oostnoordoosten
Zicht: 0711 m
Onbewolkt

TAF: ETAD 061500Z 0615/0721 06009KT 9999 SKC QNH3015INS TX06/0615Z TNM03/0705Z LAST NO AMDS AFT 0619 NEXT 0711

Waarnemingen en weersverwachtingen van meer dan 4000 vliegvelden (METAR en TAF).

De beschikbare stations zijn de gele en rode punten op de kaart.

Ga met uw muis naar het station om de naam te zien.

Klik dan om waarnemingen en weersverwachtingen te zien.

kaart wijzigen: klik op de groene knoppen met een zwart kruis om in te zoomen, op de groene knop met een streepje om uit te zoomen of op de groene pijlen voor aangrenzende kaarten.


METAR-TAF: